createdAt,value
2022-12-31T00:00:27.004Z,12.04
2022-12-31T00:03:31.083Z,12.00
2022-12-31T00:06:35.185Z,12.21
2022-12-31T00:09:39.228Z,12.52
2022-12-31T00:12:43.157Z,12.44
2022-12-31T00:15:47.408Z,12.29
2022-12-31T00:18:51.700Z,12.11
2022-12-31T00:21:55.801Z,12.04
2022-12-31T00:24:59.842Z,11.99
2022-12-31T00:28:03.561Z,11.97
2022-12-31T00:31:07.864Z,12.34
2022-12-31T00:34:12.037Z,12.06
2022-12-31T00:37:16.231Z,12.15
2022-12-31T00:40:20.230Z,12.22
2022-12-31T00:43:24.144Z,12.22
2022-12-31T00:46:28.286Z,11.61
2022-12-31T00:49:32.350Z,11.91
2022-12-31T00:52:36.351Z,12.18
2022-12-31T00:55:40.387Z,12.03
2022-12-31T00:58:44.413Z,11.96
2022-12-31T01:01:48.827Z,12.10
2022-12-31T01:04:52.887Z,11.97
2022-12-31T01:07:56.652Z,12.12
2022-12-31T01:11:00.919Z,12.14
2022-12-31T01:14:05.246Z,12.07
2022-12-31T01:17:09.317Z,11.97
2022-12-31T01:20:13.296Z,11.89
2022-12-31T01:23:17.322Z,12.04
2022-12-31T01:26:21.301Z,12.15
2022-12-31T01:29:25.392Z,12.08
2022-12-31T01:32:29.307Z,11.73
2022-12-31T01:35:33.140Z,11.86
2022-12-31T01:38:37.130Z,11.99
2022-12-31T01:41:41.135Z,11.96
2022-12-31T01:44:45.029Z,11.88
2022-12-31T01:47:50.509Z,11.82
2022-12-31T01:50:54.301Z,12.06
2022-12-31T01:53:58.163Z,11.79
2022-12-31T01:57:02.323Z,12.00
2022-12-31T02:00:06.406Z,12.04
2022-12-31T02:03:10.342Z,11.91
2022-12-31T02:06:14.303Z,12.14
2022-12-31T02:09:18.205Z,11.92
2022-12-31T02:12:22.270Z,12.22
2022-12-31T02:15:26.504Z,12.04
2022-12-31T02:18:30.164Z,12.04
2022-12-31T02:21:37.350Z,12.21
2022-12-31T02:24:41.408Z,12.07
2022-12-31T02:27:45.415Z,12.16
2022-12-31T02:30:49.545Z,11.95
2022-12-31T02:33:53.268Z,12.09
2022-12-31T02:36:57.239Z,11.91
2022-12-31T02:40:01.138Z,11.94
2022-12-31T02:43:05.355Z,11.58
2022-12-31T02:46:09.653Z,11.91
2022-12-31T02:49:13.819Z,12.03
2022-12-31T02:52:17.823Z,11.86
2022-12-31T02:55:21.598Z,12.08
2022-12-31T02:58:25.690Z,11.87
2022-12-31T03:01:29.731Z,11.97
2022-12-31T03:04:33.669Z,11.98
2022-12-31T03:07:37.703Z,11.88
2022-12-31T03:10:41.829Z,12.10
2022-12-31T03:13:45.935Z,11.99
2022-12-31T03:16:49.715Z,12.30
2022-12-31T03:19:53.836Z,12.09
2022-12-31T03:22:57.891Z,12.19
2022-12-31T03:26:01.805Z,11.81
2022-12-31T03:29:05.735Z,11.80
2022-12-31T03:32:09.799Z,11.91
2022-12-31T03:35:14.677Z,11.99
2022-12-31T03:38:18.729Z,12.02
2022-12-31T03:41:22.987Z,11.84
2022-12-31T03:44:26.932Z,12.01
2022-12-31T03:47:31.024Z,12.10
2022-12-31T03:50:34.790Z,11.99
2022-12-31T03:53:38.768Z,12.00
2022-12-31T03:56:42.736Z,11.96
2022-12-31T03:59:46.692Z,12.09
2022-12-31T04:02:50.844Z,11.96
2022-12-31T04:05:55.082Z,11.81
2022-12-31T04:08:58.732Z,11.86
2022-12-31T04:12:02.669Z,11.60
2022-12-31T04:15:06.796Z,11.99
2022-12-31T04:18:11.222Z,12.17
2022-12-31T04:21:15.494Z,12.20
2022-12-31T04:24:19.672Z,12.19
2022-12-31T04:27:23.850Z,11.82
2022-12-31T04:30:27.496Z,11.86
2022-12-31T04:33:31.638Z,12.02
2022-12-31T04:36:35.919Z,12.14
2022-12-31T04:39:39.867Z,12.06
2022-12-31T04:42:43.750Z,11.76
2022-12-31T04:45:47.928Z,11.55
2022-12-31T04:48:52.180Z,11.42
2022-12-31T04:51:56.053Z,11.53
2022-12-31T04:54:59.895Z,11.53
2022-12-31T04:58:05.895Z,11.69
2022-12-31T05:01:09.968Z,11.60
2022-12-31T05:04:14.123Z,11.59
2022-12-31T05:07:18.730Z,11.50
2022-12-31T05:10:22.749Z,11.72
2022-12-31T05:13:32.778Z,11.55
2022-12-31T05:16:37.207Z,11.48
2022-12-31T05:19:41.318Z,11.49
2022-12-31T05:22:45.539Z,11.42
2022-12-31T05:25:49.772Z,11.12
2022-12-31T05:28:53.743Z,11.17
2022-12-31T05:31:57.891Z,11.52
2022-12-31T05:35:01.564Z,11.89
2022-12-31T05:38:05.807Z,11.67
2022-12-31T05:41:09.860Z,11.58
2022-12-31T05:44:14.473Z,11.64
2022-12-31T05:47:18.075Z,11.44
2022-12-31T05:50:22.052Z,11.26
2022-12-31T05:53:26.133Z,11.22
2022-12-31T05:56:30.079Z,11.39
2022-12-31T05:59:33.952Z,11.71
2022-12-31T06:02:38.513Z,11.55
2022-12-31T06:05:42.579Z,11.17
2022-12-31T06:08:46.558Z,11.25
2022-12-31T06:11:50.628Z,11.32
2022-12-31T06:14:54.718Z,11.21
2022-12-31T06:17:58.771Z,11.21
2022-12-31T06:21:02.859Z,11.13
2022-12-31T06:24:07.054Z,11.27
2022-12-31T06:27:11.256Z,11.12
2022-12-31T06:30:14.923Z,11.17
2022-12-31T06:33:19.207Z,11.20
2022-12-31T06:36:23.231Z,11.27
2022-12-31T06:39:27.167Z,11.16
2022-12-31T06:42:31.043Z,11.29
2022-12-31T06:45:35.252Z,11.21
2022-12-31T06:48:39.299Z,11.02
2022-12-31T06:51:43.403Z,11.39
2022-12-31T06:54:48.630Z,11.67
2022-12-31T06:57:54.549Z,11.49
2022-12-31T07:00:59.008Z,11.23
2022-12-31T07:04:03.164Z,11.14
2022-12-31T07:07:07.354Z,11.57
2022-12-31T07:10:11.296Z,11.64
2022-12-31T07:13:15.252Z,11.54
2022-12-31T07:16:19.167Z,11.59
2022-12-31T07:19:23.315Z,11.72
2022-12-31T07:22:27.240Z,11.86
2022-12-31T07:25:34.203Z,11.43
2022-12-31T07:28:37.988Z,11.37
2022-12-31T07:31:41.913Z,11.58
2022-12-31T07:34:46.274Z,11.64
2022-12-31T07:37:50.181Z,11.49
2022-12-31T07:40:54.160Z,11.63
2022-12-31T07:43:58.130Z,11.74
2022-12-31T07:47:02.385Z,11.53
2022-12-31T07:50:06.637Z,11.48
2022-12-31T07:53:11.048Z,11.47
2022-12-31T07:56:15.053Z,11.43
2022-12-31T07:59:24.399Z,11.45
2022-12-31T08:02:28.632Z,11.54
2022-12-31T08:05:32.635Z,11.67
2022-12-31T08:08:36.811Z,11.79
2022-12-31T08:11:40.997Z,11.86
2022-12-31T08:14:44.899Z,12.11
2022-12-31T08:17:48.908Z,12.19
2022-12-31T08:20:53.135Z,12.36
2022-12-31T08:23:57.892Z,12.37
2022-12-31T08:27:01.705Z,12.57
2022-12-31T08:30:05.658Z,12.22
2022-12-31T08:33:09.741Z,12.46
2022-12-31T08:36:14.822Z,12.52
2022-12-31T08:39:20.068Z,12.59
2022-12-31T08:42:24.456Z,12.59
2022-12-31T08:45:28.474Z,12.26
2022-12-31T08:48:32.304Z,12.05
2022-12-31T08:51:36.526Z,12.14
2022-12-31T08:54:40.693Z,12.45
2022-12-31T08:57:47.607Z,12.57
2022-12-31T09:00:51.737Z,12.55
2022-12-31T09:03:55.743Z,12.41
2022-12-31T09:06:59.694Z,12.10
2022-12-31T09:10:03.497Z,12.23
2022-12-31T09:13:09.217Z,12.32
2022-12-31T09:16:13.297Z,12.54
2022-12-31T09:19:17.271Z,12.63
2022-12-31T09:22:21.342Z,12.59
2022-12-31T09:25:25.601Z,12.60
2022-12-31T09:28:29.690Z,12.81
2022-12-31T09:31:33.589Z,13.16
2022-12-31T09:34:37.502Z,13.21
2022-12-31T09:37:41.552Z,13.30
2022-12-31T09:40:45.428Z,13.17
2022-12-31T09:43:57.347Z,13.24
2022-12-31T09:47:05.132Z,13.32
2022-12-31T09:50:09.173Z,13.12
2022-12-31T09:53:13.316Z,12.85
2022-12-31T09:56:35.591Z,12.88
2022-12-31T09:59:39.546Z,12.70
2022-12-31T10:02:46.209Z,13.00
2022-12-31T10:05:50.116Z,12.64
2022-12-31T10:08:54.228Z,12.85
2022-12-31T10:11:58.470Z,13.00
2022-12-31T10:15:02.113Z,13.10
2022-12-31T10:18:06.218Z,12.85
2022-12-31T10:21:10.548Z,12.74
2022-12-31T10:24:15.732Z,13.07
2022-12-31T10:27:19.778Z,13.01
2022-12-31T10:30:23.527Z,13.08
2022-12-31T10:33:27.472Z,13.30
2022-12-31T10:36:31.785Z,13.57
2022-12-31T10:39:35.663Z,13.71
2022-12-31T10:42:39.807Z,13.78
2022-12-31T10:45:45.285Z,13.70
2022-12-31T10:48:49.438Z,13.83
2022-12-31T10:51:53.379Z,13.76
2022-12-31T10:54:57.396Z,13.94
2022-12-31T10:58:04.351Z,14.24
2022-12-31T11:01:08.981Z,14.44
2022-12-31T11:04:15.768Z,14.33
2022-12-31T11:07:19.521Z,14.22
2022-12-31T11:10:23.480Z,14.21
2022-12-31T11:13:27.691Z,14.31
2022-12-31T11:16:31.923Z,14.32
2022-12-31T11:19:36.018Z,14.34
2022-12-31T11:22:40.519Z,14.13
2022-12-31T11:25:44.660Z,14.52
2022-12-31T11:28:48.705Z,14.33
2022-12-31T11:31:53.336Z,14.47
2022-12-31T11:34:57.125Z,14.46
2022-12-31T11:38:00.783Z,14.66
2022-12-31T11:41:05.126Z,14.63
2022-12-31T11:44:09.022Z,14.72
2022-12-31T11:47:13.158Z,14.50
2022-12-31T11:50:16.884Z,14.50
2022-12-31T11:53:21.595Z,14.87
2022-12-31T11:56:25.516Z,14.79
2022-12-31T11:59:29.270Z,14.48
2022-12-31T12:02:33.349Z,14.47
2022-12-31T12:05:37.801Z,14.65
2022-12-31T12:08:41.571Z,14.48
2022-12-31T12:11:45.439Z,14.29
2022-12-31T12:14:49.724Z,14.49
2022-12-31T12:17:53.770Z,14.48
2022-12-31T12:20:57.330Z,14.65
2022-12-31T12:24:01.643Z,14.74
2022-12-31T12:27:05.482Z,14.93
2022-12-31T12:30:09.280Z,15.18
2022-12-31T12:33:13.528Z,15.26
2022-12-31T12:36:17.811Z,15.34
2022-12-31T12:39:22.842Z,15.54
2022-12-31T12:42:26.703Z,15.32
2022-12-31T12:45:30.573Z,15.46
2022-12-31T12:48:37.583Z,15.45
2022-12-31T12:51:41.933Z,15.00
2022-12-31T12:54:46.519Z,15.42
2022-12-31T12:57:50.715Z,15.55
2022-12-31T13:00:54.649Z,15.60
2022-12-31T13:04:33.102Z,15.72
2022-12-31T13:07:23.106Z,15.86
2022-12-31T13:10:27.782Z,15.40
2022-12-31T13:13:31.811Z,15.75
2022-12-31T13:16:36.071Z,15.77
2022-12-31T13:19:39.901Z,15.93
2022-12-31T13:22:43.874Z,15.83
2022-12-31T13:25:47.859Z,15.98
2022-12-31T13:28:55.309Z,16.07
2022-12-31T13:31:59.558Z,16.12
2022-12-31T13:35:07.960Z,16.10
2022-12-31T13:38:13.171Z,16.12
2022-12-31T13:41:17.506Z,16.10
2022-12-31T13:44:21.679Z,16.04
2022-12-31T13:47:25.618Z,15.94
2022-12-31T13:50:29.959Z,15.79
2022-12-31T13:53:34.254Z,15.79
2022-12-31T13:56:38.055Z,15.80
2022-12-31T13:59:41.918Z,15.69
2022-12-31T14:02:46.189Z,15.62
2022-12-31T14:05:50.318Z,15.70
2022-12-31T14:08:54.700Z,15.75
2022-12-31T14:11:58.656Z,15.29
2022-12-31T14:15:02.474Z,15.44
2022-12-31T14:18:06.397Z,15.27
2022-12-31T14:21:10.378Z,15.54
2022-12-31T14:24:14.402Z,15.56
2022-12-31T14:27:18.296Z,15.42
2022-12-31T14:30:22.174Z,15.45
2022-12-31T14:33:26.397Z,15.64
2022-12-31T14:36:31.875Z,15.63
2022-12-31T14:39:35.838Z,15.45
2022-12-31T14:42:41.250Z,15.32
2022-12-31T14:45:46.700Z,15.45
2022-12-31T14:48:50.979Z,15.50
2022-12-31T14:51:55.294Z,15.38
2022-12-31T14:54:59.438Z,15.42
2022-12-31T15:01:28.121Z,15.45
2022-12-31T15:04:32.279Z,15.68
2022-12-31T15:07:36.715Z,15.60
2022-12-31T15:10:40.603Z,15.48
2022-12-31T15:13:44.520Z,15.28
2022-12-31T15:16:48.561Z,15.17
2022-12-31T15:19:52.724Z,14.78
2022-12-31T15:22:57.600Z,15.10
2022-12-31T15:26:01.428Z,14.87
2022-12-31T15:29:05.182Z,14.95
2022-12-31T15:32:10.266Z,15.11
2022-12-31T15:35:14.179Z,15.20
2022-12-31T15:38:18.591Z,15.06
2022-12-31T15:41:22.856Z,15.27
2022-12-31T15:44:26.821Z,14.98
2022-12-31T15:47:30.732Z,14.68
2022-12-31T15:50:34.777Z,15.03
2022-12-31T15:53:38.976Z,15.04
2022-12-31T15:56:42.993Z,15.05
2022-12-31T16:03:05.191Z,14.61
2022-12-31T16:06:09.454Z,14.89
2022-12-31T16:09:13.595Z,15.02
2022-12-31T16:12:17.403Z,14.75
2022-12-31T16:15:21.758Z,14.63
2022-12-31T16:18:25.922Z,14.44
2022-12-31T16:21:30.315Z,14.15
2022-12-31T16:24:48.885Z,14.24
2022-12-31T16:27:58.732Z,14.11
2022-12-31T16:31:03.110Z,14.08
2022-12-31T16:34:07.307Z,14.18
2022-12-31T16:37:11.361Z,14.34
2022-12-31T16:40:15.581Z,14.20
2022-12-31T16:43:19.621Z,14.37
2022-12-31T16:46:23.840Z,14.43
2022-12-31T16:49:27.671Z,14.34
2022-12-31T16:52:31.882Z,14.25
2022-12-31T16:55:36.117Z,14.23
2022-12-31T16:58:40.234Z,14.12
2022-12-31T17:01:44.394Z,14.06
2022-12-31T17:04:55.340Z,13.83
2022-12-31T17:08:00.077Z,13.69
2022-12-31T17:11:04.216Z,13.92
2022-12-31T17:14:08.252Z,13.76
2022-12-31T17:17:12.194Z,13.84
2022-12-31T17:20:16.139Z,13.75
2022-12-31T17:23:20.081Z,13.78
2022-12-31T17:26:25.308Z,13.82
2022-12-31T17:29:29.708Z,13.89
2022-12-31T17:32:33.861Z,13.98
2022-12-31T17:35:37.739Z,13.97
2022-12-31T17:38:41.705Z,13.73
2022-12-31T17:41:46.101Z,13.65
2022-12-31T17:44:50.352Z,13.44
2022-12-31T17:47:54.237Z,13.13
2022-12-31T17:51:00.442Z,13.40
2022-12-31T17:54:04.716Z,13.14
2022-12-31T17:57:08.605Z,12.95
2022-12-31T18:00:12.835Z,12.90
2022-12-31T18:03:16.916Z,12.93
2022-12-31T18:06:20.968Z,12.89
2022-12-31T18:09:24.817Z,12.78
2022-12-31T18:12:28.927Z,13.30
2022-12-31T18:15:32.872Z,13.19
2022-12-31T18:18:36.693Z,13.07
2022-12-31T18:21:40.813Z,12.86
2022-12-31T18:24:45.045Z,13.08
2022-12-31T18:27:48.973Z,13.34
2022-12-31T18:30:53.077Z,13.37
2022-12-31T18:33:56.976Z,13.28
2022-12-31T18:37:00.624Z,13.30
2022-12-31T18:40:04.932Z,13.51
2022-12-31T18:43:09.016Z,13.39
2022-12-31T18:46:13.109Z,13.49
2022-12-31T18:49:17.151Z,13.67
2022-12-31T18:52:21.441Z,13.58
2022-12-31T18:55:25.671Z,13.57
2022-12-31T18:58:29.581Z,13.43
2022-12-31T19:01:33.502Z,13.42
2022-12-31T19:04:37.509Z,13.26
2022-12-31T19:07:41.677Z,13.24
2022-12-31T19:10:45.769Z,13.18
2022-12-31T19:13:49.764Z,13.28
2022-12-31T19:16:55.407Z,13.23
2022-12-31T19:19:59.399Z,13.05
2022-12-31T19:23:03.479Z,13.08
2022-12-31T19:26:07.637Z,13.13
2022-12-31T19:29:11.701Z,13.39
2022-12-31T19:32:15.625Z,13.16
2022-12-31T19:35:19.818Z,12.96
2022-12-31T19:38:23.917Z,13.25
2022-12-31T19:41:28.063Z,13.13
2022-12-31T19:44:32.093Z,13.06
2022-12-31T19:47:36.146Z,13.32
2022-12-31T19:50:40.079Z,13.06
2022-12-31T19:53:44.561Z,12.97
2022-12-31T19:56:48.622Z,13.30
2022-12-31T19:59:52.666Z,13.00
2022-12-31T20:02:56.853Z,13.05
2022-12-31T20:06:00.770Z,13.07
2022-12-31T20:09:04.931Z,13.13
2022-12-31T20:12:08.841Z,12.86
2022-12-31T20:15:12.935Z,13.22
2022-12-31T20:18:16.814Z,13.46
2022-12-31T20:21:20.937Z,13.44
2022-12-31T20:24:25.181Z,13.48
2022-12-31T20:27:29.685Z,13.51
2022-12-31T20:30:33.573Z,13.43
2022-12-31T20:33:37.837Z,13.40
2022-12-31T20:36:44.044Z,13.28
2022-12-31T20:39:48.074Z,13.38
2022-12-31T20:42:52.019Z,13.18
2022-12-31T20:45:55.997Z,13.12
2022-12-31T20:49:00.232Z,13.21
2022-12-31T20:52:04.342Z,13.39
2022-12-31T20:55:08.856Z,13.48
2022-12-31T20:58:12.536Z,13.21
2022-12-31T21:01:17.110Z,13.36
2022-12-31T21:04:21.919Z,13.25
2022-12-31T21:07:25.892Z,13.34
2022-12-31T21:10:29.762Z,13.27
2022-12-31T21:13:33.666Z,13.32
2022-12-31T21:16:37.782Z,13.38
2022-12-31T21:19:41.920Z,13.25
2022-12-31T21:22:46.309Z,13.29
2022-12-31T21:25:50.175Z,13.19
2022-12-31T21:28:53.977Z,13.36
2022-12-31T21:31:57.856Z,13.09
2022-12-31T21:35:40.364Z,13.31
2022-12-31T21:38:26.454Z,13.03
2022-12-31T21:41:33.518Z,12.97
2022-12-31T21:44:37.936Z,13.03
2022-12-31T21:47:47.438Z,13.19
2022-12-31T21:50:52.087Z,13.37
2022-12-31T21:53:56.004Z,13.16
2022-12-31T21:56:59.891Z,12.98
2022-12-31T22:00:39.499Z,12.90
2022-12-31T22:03:28.492Z,12.94
2022-12-31T22:06:32.692Z,13.26
2022-12-31T22:09:37.149Z,13.06
2022-12-31T22:12:41.199Z,12.92
2022-12-31T22:15:45.437Z,12.73
2022-12-31T22:18:49.516Z,12.62
2022-12-31T22:21:53.708Z,12.59
2022-12-31T22:24:59.789Z,12.47
2022-12-31T22:28:37.035Z,12.50
2022-12-31T22:31:27.989Z,12.40
2022-12-31T22:34:32.083Z,12.62
2022-12-31T22:37:56.497Z,12.46
2022-12-31T22:40:59.869Z,12.64
2022-12-31T22:44:04.950Z,12.86
2022-12-31T22:47:09.203Z,12.66
2022-12-31T22:50:13.507Z,12.49
2022-12-31T22:53:17.583Z,12.60
2022-12-31T22:56:21.626Z,12.90
2022-12-31T22:59:25.581Z,13.15
2022-12-31T23:02:29.866Z,12.77
2022-12-31T23:05:33.641Z,12.96
2022-12-31T23:08:37.705Z,13.02
2022-12-31T23:11:41.925Z,12.97
2022-12-31T23:14:46.028Z,12.82
2022-12-31T23:17:49.939Z,12.77
2022-12-31T23:20:53.759Z,12.98
2022-12-31T23:23:57.707Z,13.11
2022-12-31T23:27:01.756Z,13.06
2022-12-31T23:30:05.784Z,13.30
2022-12-31T23:33:09.803Z,13.24
2022-12-31T23:36:13.680Z,12.84
2022-12-31T23:39:17.577Z,12.98
2022-12-31T23:42:21.592Z,13.05
2022-12-31T23:45:31.130Z,13.31
2022-12-31T23:48:37.053Z,13.12
2022-12-31T23:51:41.015Z,12.83
2022-12-31T23:54:45.036Z,12.86
2022-12-31T23:57:49.097Z,13.02
